Terminal Aerodrome Forecast
Issued by NWS

Home | Current Version | Previous Version | Text Only | Print | Product List | Glossary On
Versions: 1 2 3 4 5 6 7 8 9 10 11 12 13 14 15 16 17 18
000
FTUS44 KMAF 202320
TAFFST
TAF
KFST 202320Z 2100/2124 24011KT P6SM BKN100
     FM211600 26030G42KT P6SM BKN050=

USA.gov is the U.S. government's official web portal to all federal, state and local government web resources and services.